Sheridan, WY

8:20 AM MDT on September 16, 2014 (GMT -0600)
Sheridan County | Change Station
CLOSE
Current Station
Airport
Location: Sheridan,
Elevation: 3967 ft
Nearby Weather Stations

Elev 3967 ft 44.76 °N, 106.97 °W | Updated 27 minutes ago

Clear
Clear
49 °F
Feels Like 49 °F
N
4
Wind Variable Wind from SSE

Today
High -- | Low -- °F
--% Chance of Precip.
Yesterday
High -- | Low -- °F
Precip. -- in
6:47 AM 7:16 PM
Last Quarter, 45% visible
Pressure 30.04 in
Visibility 10.0 miles
Clouds Clear
Dew Point 40 °F
Humidity 71%
Rainfall 0.00 in
Snow Depth 0 in , 1 in , 0 in
UV 1 out of 12
Pollen 5.90 out of 12
Air Quality Not available.
Flu Activity Not available.
METAR KSHR 161353Z AUTO 16003KT 10SM CLR 09/04 A3006 RMK AO2 SLP173 T00940044

More Conditions Fewer Conditions

Pressure 30.04 in
Visibility 10.0 miles
Clouds Clear
Dew Point 40 °F
Humidity 71%
Rainfall 0.00 in
Snow Depth 0 in , 1 in , 0 in
UV 1 out of 12
Pollen 5.90 out of 12
Air Quality Not available.
Flu Activity Not available.
METAR KSHR 161353Z AUTO 16003KT 10SM CLR 09/04 A3006 RMK AO2 SLP173 T00940044

More Conditions Fewer Conditions

10-Day Weather Forecast

Almanac

Astronomy

Sep. 16, 2014 Rise Set
Actual Time 6:47 AM MDT 7:16 PM MDT
Civil Twilight 6:18 AM MDT 7:45 PM MDT
Nautical Twilight 5:43 AM MDT 8:20 PM MDT
Astronomical Twilight 5:07 AM MDT 8:56 PM MDT
Moon No Moon Rise 2:53 PM MDT
Length of Visible Light 13h 27m
Length of Day
12h 28m
Tomorrow will be 3m 5s shorter.
Last Quarter, 45% of the Moon is Illuminated
Today
Last Quarter
Sep 24
New
Oct 1
First Quarter
Oct 8
Full
Oct 15
Last Quarter

Today's Extremes

State Highs State Lows

Community

WunderPhotos

Upload Photos

1,753,784 photos uploaded!

Nearby

Snow Depth

Station Depth Elevation
Phillips Bench 0 in 8200 ft
Gros Ventre Summit 1 in 8750 ft
Reno Hill 0 in 8500 ft
Gunsight Pass 2 in 9820 ft
Little Warm 0 in 9370 ft

Earthquake Activity

City Distance Mag. Time & Date
No recent earthquake activity has been reported nearby.
Minimum magnitude displayed is 2.5.

Coastal Water Temperatures

Place Temperature
No Stations Reporting

Nearby Weather Stations